createdAt,value
2022-11-10T00:02:35.453Z,100081.06
2022-11-10T00:05:21.176Z,100085.09
2022-11-10T00:08:07.634Z,100095.88
2022-11-10T00:11:01.311Z,100099.19
2022-11-10T00:14:10.964Z,100098.63
2022-11-10T00:17:04.392Z,100092.19
2022-11-10T00:19:50.546Z,100095.38
2022-11-10T00:22:36.958Z,100110.34
2022-11-10T00:25:23.573Z,100096.22
2022-11-10T00:28:09.248Z,100098.47
2022-11-10T00:30:55.066Z,100106.62
2022-11-10T00:33:42.099Z,100115.34
2022-11-10T00:36:27.784Z,100106.72
2022-11-10T00:39:13.516Z,100105.19
2022-11-10T00:41:59.169Z,100112.13
2022-11-10T00:44:44.907Z,100107.66
2022-11-10T00:47:31.528Z,100104.87
2022-11-10T00:50:17.526Z,100099.09
2022-11-10T00:53:03.357Z,100099.88
2022-11-10T00:55:49.143Z,100098.75
2022-11-10T00:58:34.928Z,100104.72
2022-11-10T01:01:21.630Z,100104.06
2022-11-10T01:04:07.990Z,100097.75
2022-11-10T01:06:53.838Z,100092.03
2022-11-10T01:09:39.943Z,100095.59
2022-11-10T01:12:29.652Z,100094.81
2022-11-10T01:15:15.712Z,100093.31
2022-11-10T01:18:01.335Z,100096.34
2022-11-10T01:20:51.357Z,100089.81
2022-11-10T01:23:37.438Z,100090.28
2022-11-10T01:26:23.360Z,100090.91
2022-11-10T01:29:09.157Z,100084.91
2022-11-10T01:31:54.887Z,100084.00
2022-11-10T01:34:40.921Z,100095.53
2022-11-10T01:37:27.315Z,100091.47
2022-11-10T01:40:13.263Z,100098.09
2022-11-10T01:42:59.281Z,100097.81
2022-11-10T01:45:55.515Z,100109.16
2022-11-10T01:48:47.876Z,100094.56
2022-11-10T01:51:44.758Z,100098.81
2022-11-10T01:54:32.505Z,100104.50
2022-11-10T01:57:18.128Z,100107.66
2022-11-10T02:00:04.472Z,100107.78
2022-11-10T02:02:54.478Z,100110.12
2022-11-10T02:05:40.152Z,100114.63
2022-11-10T02:08:26.055Z,100112.50
2022-11-10T02:11:12.051Z,100123.19
2022-11-10T02:13:57.999Z,100123.09
2022-11-10T02:16:43.651Z,100118.66
2022-11-10T02:19:29.665Z,100124.81
2022-11-10T02:22:15.369Z,100123.59
2022-11-10T02:25:01.308Z,100126.69
2022-11-10T02:27:47.023Z,100127.72
2022-11-10T02:30:33.147Z,100135.56
2022-11-10T02:33:19.041Z,100136.69
2022-11-10T02:36:05.098Z,100137.97
2022-11-10T02:38:50.671Z,100144.28
2022-11-10T02:41:36.215Z,100138.09
2022-11-10T02:44:21.952Z,100140.88
2022-11-10T02:47:07.617Z,100139.03
2022-11-10T02:49:53.558Z,100143.59
2022-11-10T02:52:39.344Z,100144.81
2022-11-10T02:55:25.025Z,100151.78
2022-11-10T02:58:10.870Z,100144.81
2022-11-10T03:00:56.639Z,100148.47
2022-11-10T03:03:42.797Z,100156.34
2022-11-10T03:06:28.565Z,100162.06
2022-11-10T03:09:14.074Z,100167.00
2022-11-10T03:11:59.854Z,100168.44
2022-11-10T03:14:45.537Z,100173.88
2022-11-10T03:17:31.328Z,100175.91
2022-11-10T03:20:17.079Z,100178.16
2022-11-10T03:23:04.109Z,100180.88
2022-11-10T03:25:50.583Z,100179.75
2022-11-10T03:28:36.530Z,100174.94
2022-11-10T03:31:22.231Z,100178.97
2022-11-10T03:34:08.082Z,100180.91
2022-11-10T03:36:53.856Z,100175.69
2022-11-10T03:39:39.861Z,100180.34
2022-11-10T03:42:25.771Z,100186.50
2022-11-10T03:45:12.092Z,100187.00
2022-11-10T03:47:57.569Z,100190.00
2022-11-10T03:50:43.605Z,100189.19
2022-11-10T03:53:29.298Z,100198.59
2022-11-10T03:56:14.914Z,100196.50
2022-11-10T03:59:00.616Z,100196.19
2022-11-10T04:01:46.273Z,100207.66
2022-11-10T04:04:50.831Z,100197.06
2022-11-10T04:07:55.896Z,100206.63
2022-11-10T04:10:41.982Z,100210.03
2022-11-10T04:13:46.685Z,100219.97
2022-11-10T04:16:32.719Z,100225.47
2022-11-10T04:19:18.456Z,100220.97
2022-11-10T04:22:04.147Z,100225.19
2022-11-10T04:24:49.971Z,100227.28
2022-11-10T04:27:35.636Z,100230.78
2022-11-10T04:30:21.364Z,100228.28
2022-11-10T04:33:07.016Z,100227.59
2022-11-10T04:35:52.578Z,100227.13
2022-11-10T04:38:38.700Z,100226.97
2022-11-10T04:41:25.374Z,100227.78
2022-11-10T04:44:10.930Z,100231.94
2022-11-10T04:46:56.936Z,100229.84
2022-11-10T04:49:42.552Z,100232.31
2022-11-10T04:52:28.317Z,100237.44
2022-11-10T04:55:13.893Z,100235.84
2022-11-10T04:57:59.471Z,100243.91
2022-11-10T05:00:45.476Z,100262.22
2022-11-10T05:03:31.488Z,100252.66
2022-11-10T05:06:18.344Z,100261.16
2022-11-10T05:09:04.128Z,100269.53
2022-11-10T05:11:49.712Z,100262.91
2022-11-10T05:14:35.687Z,100262.25
2022-11-10T05:17:22.349Z,100271.56
2022-11-10T05:20:08.182Z,100271.16
2022-11-10T05:23:12.192Z,100275.06
2022-11-10T05:25:58.213Z,100271.97
2022-11-10T05:28:45.167Z,100273.81
2022-11-10T05:31:31.326Z,100275.78
2022-11-10T05:34:16.925Z,100286.38
2022-11-10T05:37:02.697Z,100286.12
2022-11-10T05:39:48.513Z,100290.88
2022-11-10T05:42:34.223Z,100296.53
2022-11-10T05:45:23.880Z,100300.53
2022-11-10T05:48:09.863Z,100305.34
2022-11-10T05:50:55.463Z,100305.69
2022-11-10T05:53:41.589Z,100308.31
2022-11-10T05:56:27.218Z,100323.50
2022-11-10T05:59:12.863Z,100316.31
2022-11-10T06:01:58.483Z,100322.16
2022-11-10T06:04:44.460Z,100329.97
2022-11-10T06:07:30.470Z,100334.19
2022-11-10T06:10:16.447Z,100332.16
2022-11-10T06:13:02.654Z,100338.78
2022-11-10T06:15:50.565Z,100341.47
2022-11-10T06:18:36.788Z,100349.81
2022-11-10T06:21:22.431Z,100365.56
2022-11-10T06:24:08.363Z,100368.78
2022-11-10T06:26:53.996Z,100370.78
2022-11-10T06:29:39.603Z,100370.28
2022-11-10T06:32:25.333Z,100371.88
2022-11-10T06:35:11.223Z,100375.09
2022-11-10T06:38:04.563Z,100383.09
2022-11-10T06:40:50.580Z,100381.75
2022-11-10T06:43:36.508Z,100379.09
2022-11-10T06:46:22.273Z,100383.00
2022-11-10T06:49:08.212Z,100388.38
2022-11-10T06:51:53.819Z,100401.97
2022-11-10T06:54:39.570Z,100403.25
2022-11-10T06:57:25.612Z,100415.03
2022-11-10T07:00:11.954Z,100416.13
2022-11-10T07:03:05.438Z,100418.91
2022-11-10T07:05:51.376Z,100426.69
2022-11-10T07:08:37.589Z,100424.66
2022-11-10T07:11:23.487Z,100433.31
2022-11-10T07:14:09.573Z,100439.72
2022-11-10T07:16:55.419Z,100438.34
2022-11-10T07:19:41.281Z,100434.66
2022-11-10T07:22:26.881Z,100443.03
2022-11-10T07:25:12.522Z,100447.03
2022-11-10T07:28:00.094Z,100449.28
2022-11-10T07:30:46.217Z,100451.38
2022-11-10T07:33:31.844Z,100445.38
2022-11-10T07:36:17.646Z,100450.06
2022-11-10T07:39:03.533Z,100448.03
2022-11-10T07:41:52.488Z,100452.59
2022-11-10T07:44:38.867Z,100464.41
2022-11-10T07:47:24.833Z,100466.56
2022-11-10T07:50:10.690Z,100479.50
2022-11-10T07:53:16.360Z,100477.22
2022-11-10T07:56:02.255Z,100470.03
2022-11-10T07:58:48.351Z,100478.44
2022-11-10T08:01:35.552Z,100480.53
2022-11-10T08:04:22.719Z,100478.06
2022-11-10T08:07:09.237Z,100478.03
2022-11-10T08:09:55.381Z,100488.37
2022-11-10T08:12:41.281Z,100490.03
2022-11-10T08:15:27.492Z,100494.66
2022-11-10T08:18:16.878Z,100494.97
2022-11-10T08:21:03.336Z,100511.72
2022-11-10T08:23:49.459Z,100506.00
2022-11-10T08:26:35.424Z,100505.66
2022-11-10T08:29:21.253Z,100488.19
2022-11-10T08:32:06.835Z,100503.22
2022-11-10T08:34:52.586Z,100505.03
2022-11-10T08:37:38.369Z,100506.81
2022-11-10T08:40:25.025Z,100515.37
2022-11-10T08:43:11.759Z,100522.00
2022-11-10T08:45:57.899Z,100541.84
2022-11-10T08:48:43.630Z,100536.34
2022-11-10T08:51:30.952Z,100560.53
2022-11-10T08:54:19.846Z,100553.91
2022-11-10T08:57:06.266Z,100554.72
2022-11-10T08:59:52.104Z,100569.97
2022-11-10T09:02:37.932Z,100575.22
2022-11-10T09:05:23.616Z,100582.06
2022-11-10T09:08:14.379Z,100570.53
2022-11-10T09:11:02.452Z,100567.06
2022-11-10T09:13:48.208Z,100565.38
2022-11-10T09:16:34.021Z,100587.22
2022-11-10T09:19:20.381Z,100585.38
2022-11-10T09:22:06.078Z,100587.06
2022-11-10T09:24:51.988Z,100599.91
2022-11-10T09:27:38.263Z,100581.22
2022-11-10T09:30:23.884Z,100590.06
2022-11-10T09:33:09.998Z,100584.22
2022-11-10T09:36:02.789Z,100591.41
2022-11-10T09:38:48.666Z,100593.72
2022-11-10T09:41:38.161Z,100603.06
2022-11-10T09:44:26.527Z,100600.38
2022-11-10T09:47:56.892Z,100608.25
2022-11-10T09:50:48.762Z,100606.91
2022-11-10T09:53:41.722Z,100606.94
2022-11-10T09:56:35.117Z,100610.37
2022-11-10T09:59:26.221Z,100611.34
2022-11-10T10:02:50.453Z,100612.47
2022-11-10T10:06:02.547Z,100622.91
2022-11-10T10:08:51.695Z,100625.31
2022-11-10T10:11:49.166Z,100634.59
2022-11-10T10:14:42.458Z,100631.94
2022-11-10T10:17:38.314Z,100638.66
2022-11-10T10:20:45.157Z,100631.94
2022-11-10T10:24:07.733Z,100632.44
2022-11-10T10:26:50.956Z,100637.06
2022-11-10T10:29:43.258Z,100634.09
2022-11-10T10:32:29.224Z,100620.34
2022-11-10T10:35:16.344Z,100626.50
2022-11-10T10:38:03.748Z,100626.59
2022-11-10T10:40:51.020Z,100638.75
2022-11-10T10:43:36.853Z,100635.31
2022-11-10T10:46:28.401Z,100646.94
2022-11-10T10:49:31.498Z,100639.59
2022-11-10T10:52:18.216Z,100637.25
2022-11-10T10:55:08.048Z,100644.59
2022-11-10T10:58:00.904Z,100640.91
2022-11-10T11:00:51.783Z,100643.09
2022-11-10T11:03:44.474Z,100654.06
2022-11-10T11:06:33.819Z,100638.78
2022-11-10T11:09:24.276Z,100644.75
2022-11-10T11:12:13.053Z,100653.87
2022-11-10T11:15:26.611Z,100656.84
2022-11-10T11:18:17.245Z,100667.41
2022-11-10T11:21:33.620Z,100676.97
2022-11-10T11:24:25.271Z,100670.06
2022-11-10T11:27:36.278Z,100659.22
2022-11-10T11:30:23.527Z,100670.09
2022-11-10T11:33:15.034Z,100661.13
2022-11-10T11:36:30.428Z,100671.59
2022-11-10T11:39:28.750Z,100667.78
2022-11-10T11:42:28.951Z,100670.25
2022-11-10T11:45:21.938Z,100681.31
2022-11-10T11:48:42.449Z,100676.78
2022-11-10T11:51:50.097Z,100680.09
2022-11-10T11:55:10.976Z,100682.81
2022-11-10T11:58:20.079Z,100680.84
2022-11-10T12:01:24.500Z,100685.66
2022-11-10T12:04:43.018Z,100679.81
2022-11-10T12:07:45.133Z,100678.50
2022-11-10T12:10:47.821Z,100678.09
2022-11-10T12:13:53.480Z,100681.50
2022-11-10T12:16:39.341Z,100689.50
2022-11-10T12:19:37.317Z,100688.78
2022-11-10T12:22:39.652Z,100698.50
2022-11-10T12:25:32.602Z,100708.13
2022-11-10T12:28:24.105Z,100713.59
2022-11-10T12:31:14.525Z,100703.03
2022-11-10T12:34:06.084Z,100707.13
2022-11-10T12:36:51.752Z,100723.91
2022-11-10T12:39:53.892Z,100733.50
2022-11-10T12:42:39.642Z,100719.88
2022-11-10T12:45:35.405Z,100720.50
2022-11-10T12:48:21.714Z,100723.53
2022-11-10T12:51:21.803Z,100730.62
2022-11-10T12:54:16.323Z,100727.88
2022-11-10T12:57:13.720Z,100731.19
2022-11-10T13:00:05.073Z,100739.31
2022-11-10T13:02:50.897Z,100724.50
2022-11-10T13:05:42.011Z,100728.47
2022-11-10T13:08:32.848Z,100730.09
2022-11-10T13:11:18.256Z,100729.91
2022-11-10T13:14:04.448Z,100736.47
2022-11-10T13:16:52.336Z,100735.37
2022-11-10T13:19:39.129Z,100745.00
2022-11-10T13:22:31.757Z,100754.94
2022-11-10T13:25:36.067Z,100749.75
2022-11-10T13:28:47.144Z,100742.97
2022-11-10T13:31:33.039Z,100753.72
2022-11-10T13:34:18.899Z,100757.94
2022-11-10T13:37:29.412Z,100771.88
2022-11-10T13:40:24.289Z,100761.72
2022-11-10T13:43:13.073Z,100774.69
2022-11-10T13:46:00.022Z,100775.72
2022-11-10T13:49:01.584Z,100763.47
2022-11-10T13:51:56.219Z,100781.00
2022-11-10T13:55:20.260Z,100775.72
2022-11-10T13:58:09.361Z,100774.22
2022-11-10T14:01:17.047Z,100782.06
2022-11-10T14:04:03.048Z,100779.53
2022-11-10T14:06:50.590Z,100776.16
2022-11-10T14:09:41.314Z,100794.09
2022-11-10T14:12:46.445Z,100786.72
2022-11-10T14:15:39.378Z,100795.47
2022-11-10T14:18:27.093Z,100793.34
2022-11-10T14:21:42.487Z,100803.06
2022-11-10T14:24:39.270Z,100808.38
2022-11-10T14:27:29.759Z,100802.34
2022-11-10T14:30:21.698Z,100811.09
2022-11-10T14:33:11.117Z,100816.34
2022-11-10T14:36:01.319Z,100813.97
2022-11-10T14:38:47.135Z,100821.03
2022-11-10T14:41:33.147Z,100823.03
2022-11-10T14:44:24.226Z,100832.09
2022-11-10T14:47:31.078Z,100825.44
2022-11-10T14:50:19.509Z,100826.16
2022-11-10T14:53:15.888Z,100832.34
2022-11-10T14:56:02.431Z,100835.62
2022-11-10T14:58:48.384Z,100834.06
2022-11-10T15:01:36.816Z,100835.28
2022-11-10T15:04:33.276Z,100835.78
2022-11-10T15:07:18.902Z,100852.94
2022-11-10T15:10:05.661Z,100860.22
2022-11-10T15:13:06.414Z,100850.00
2022-11-10T15:15:53.629Z,100863.25
2022-11-10T15:18:39.595Z,100857.06
2022-11-10T15:21:30.370Z,100850.87
2022-11-10T15:24:16.055Z,100859.28
2022-11-10T15:27:01.872Z,100863.72
2022-11-10T15:29:48.006Z,100861.09
2022-11-10T15:32:35.246Z,100869.25
2022-11-10T15:35:23.709Z,100869.97
2022-11-10T15:38:09.242Z,100877.31
2022-11-10T15:41:12.761Z,100885.94
2022-11-10T15:44:22.234Z,100890.03
2022-11-10T15:47:10.267Z,100886.97
2022-11-10T15:49:56.124Z,100886.97
2022-11-10T15:52:42.113Z,100894.09
2022-11-10T15:55:29.681Z,100899.34
2022-11-10T15:58:17.129Z,100883.56
2022-11-10T16:01:03.405Z,100887.22
2022-11-10T16:03:49.327Z,100894.06
2022-11-10T16:06:35.440Z,100902.00
2022-11-10T16:09:21.376Z,100905.25
2022-11-10T16:12:13.217Z,100910.47
2022-11-10T16:14:59.687Z,100915.97
2022-11-10T16:17:45.645Z,100905.38
2022-11-10T16:20:31.192Z,100917.28
2022-11-10T16:23:17.117Z,100928.78
2022-11-10T16:26:03.354Z,100932.37
2022-11-10T16:28:49.089Z,100934.72
2022-11-10T16:31:35.090Z,100938.31
2022-11-10T16:34:20.771Z,100940.44
2022-11-10T16:37:06.543Z,100955.78
2022-11-10T16:39:52.172Z,100947.66
2022-11-10T16:42:37.848Z,100946.50
2022-11-10T16:45:24.417Z,100959.31
2022-11-10T16:48:13.566Z,100952.88
2022-11-10T16:50:59.500Z,100963.41
2022-11-10T16:53:45.677Z,100970.88
2022-11-10T16:56:31.497Z,100968.38
2022-11-10T16:59:17.312Z,100964.72
2022-11-10T17:02:03.037Z,100970.19
2022-11-10T17:04:48.749Z,100976.50
2022-11-10T17:07:34.911Z,100986.63
2022-11-10T17:10:20.652Z,100988.38
2022-11-10T17:13:08.652Z,101010.31
2022-11-10T17:15:57.683Z,101005.91
2022-11-10T17:18:43.470Z,101013.78
2022-11-10T17:21:32.826Z,101019.13
2022-11-10T17:24:18.927Z,101025.81
2022-11-10T17:27:04.777Z,101026.16
2022-11-10T17:29:50.768Z,101024.44
2022-11-10T17:33:03.184Z,101029.97
2022-11-10T17:35:42.353Z,101032.00
2022-11-10T17:38:29.004Z,101032.81
2022-11-10T17:41:19.023Z,101048.72
2022-11-10T17:44:04.827Z,101044.28
2022-11-10T17:46:50.802Z,101050.53
2022-11-10T17:49:36.584Z,101050.16
2022-11-10T17:52:22.553Z,101067.75
2022-11-10T17:55:23.524Z,101062.75
2022-11-10T17:58:10.087Z,101070.84
2022-11-10T18:00:56.087Z,101069.28
2022-11-10T18:03:41.758Z,101064.91
2022-11-10T18:06:27.535Z,101081.00
2022-11-10T18:09:13.304Z,101089.84
2022-11-10T18:11:58.931Z,101082.91
2022-11-10T18:14:44.637Z,101080.75
2022-11-10T18:17:30.309Z,101072.78
2022-11-10T18:20:16.508Z,101081.06
2022-11-10T18:23:02.370Z,101079.56
2022-11-10T18:25:48.065Z,101089.06
2022-11-10T18:28:34.598Z,101100.19
2022-11-10T18:31:20.325Z,101102.72
2022-11-10T18:34:06.062Z,101093.28
2022-11-10T18:36:52.328Z,101112.63
2022-11-10T18:39:38.114Z,101118.37
2022-11-10T18:42:24.589Z,101116.59
2022-11-10T18:45:11.146Z,101123.25
2022-11-10T18:48:01.141Z,101124.97
2022-11-10T18:50:46.928Z,101130.41
2022-11-10T18:53:37.910Z,101143.97
2022-11-10T18:56:25.090Z,101145.56
2022-11-10T18:59:10.978Z,101146.66
2022-11-10T19:01:56.819Z,101144.84
2022-11-10T19:04:42.784Z,101146.09
2022-11-10T19:07:29.220Z,101157.72
2022-11-10T19:10:15.320Z,101170.19
2022-11-10T19:13:01.206Z,101171.84
2022-11-10T19:15:46.873Z,101175.06
2022-11-10T19:18:32.537Z,101181.94
2022-11-10T19:21:19.949Z,101179.56
2022-11-10T19:24:06.063Z,101172.09
2022-11-10T19:26:52.021Z,101173.69
2022-11-10T19:29:37.807Z,101178.00
2022-11-10T19:32:25.005Z,101179.56
2022-11-10T19:35:13.300Z,101184.16
2022-11-10T19:37:58.918Z,101192.56
2022-11-10T19:40:45.218Z,101195.81
2022-11-10T19:43:31.085Z,101197.62
2022-11-10T19:46:18.192Z,101200.41
2022-11-10T19:49:04.269Z,101198.69
2022-11-10T19:51:50.509Z,101202.09
2022-11-10T19:54:36.445Z,101203.06
2022-11-10T19:57:23.172Z,101200.13
2022-11-10T20:00:12.346Z,101206.50
2022-11-10T20:02:58.208Z,101205.44
2022-11-10T20:05:46.221Z,101197.84
2022-11-10T20:08:32.281Z,101208.81
2022-11-10T20:11:22.046Z,101208.75
2022-11-10T20:14:07.542Z,101208.28
2022-11-10T20:16:53.465Z,101207.41
2022-11-10T20:19:41.129Z,101210.47
2022-11-10T20:22:27.528Z,101218.06
2022-11-10T20:25:13.492Z,101216.00
2022-11-10T20:28:01.295Z,101227.31
2022-11-10T20:30:46.989Z,101229.09
2022-11-10T20:33:32.820Z,101224.06
2022-11-10T20:36:26.217Z,101220.13
2022-11-10T20:39:11.986Z,101233.72
2022-11-10T20:41:57.650Z,101241.50
2022-11-10T20:44:43.392Z,101240.31
2022-11-10T20:47:29.392Z,101245.06
2022-11-10T20:50:19.208Z,101242.94
2022-11-10T20:53:07.621Z,101249.03
2022-11-10T20:55:57.945Z,101247.75
2022-11-10T20:58:45.064Z,101251.22
2022-11-10T21:01:30.866Z,101254.97
2022-11-10T21:04:17.011Z,101259.34
2022-11-10T21:07:02.723Z,101274.59
2022-11-10T21:09:48.732Z,101281.63
2022-11-10T21:12:49.978Z,101275.75
2022-11-10T21:15:38.125Z,101271.63
2022-11-10T21:18:28.226Z,101281.09
2022-11-10T21:21:34.354Z,101272.19
2022-11-10T21:24:20.873Z,101272.47
2022-11-10T21:27:06.755Z,101266.44
2022-11-10T21:29:52.871Z,101270.00
2022-11-10T21:32:38.916Z,101274.34
2022-11-10T21:35:25.500Z,101273.13
2022-11-10T21:38:12.169Z,101272.22
2022-11-10T21:40:57.868Z,101272.13
2022-11-10T21:43:43.416Z,101270.59
2022-11-10T21:46:29.269Z,101266.78
2022-11-10T21:49:15.119Z,101281.78
2022-11-10T21:52:00.911Z,101279.00
2022-11-10T21:54:46.670Z,101282.50
2022-11-10T21:57:32.356Z,101280.50
2022-11-10T22:00:18.275Z,101294.81
2022-11-10T22:03:03.963Z,101290.44
2022-11-10T22:05:49.514Z,101299.09
2022-11-10T22:08:35.806Z,101291.63
2022-11-10T22:11:40.444Z,101295.41
2022-11-10T22:14:45.181Z,101307.94
2022-11-10T22:17:50.654Z,101305.09
2022-11-10T22:20:36.572Z,101306.03
2022-11-10T22:23:42.189Z,101304.72
2022-11-10T22:26:28.032Z,101313.97
2022-11-10T22:29:13.800Z,101316.59
2022-11-10T22:32:00.592Z,101318.34
2022-11-10T22:34:46.489Z,101318.31
2022-11-10T22:37:33.158Z,101316.78
2022-11-10T22:40:38.126Z,101318.31
2022-11-10T22:43:42.928Z,101315.53
2022-11-10T22:46:28.889Z,101313.38
2022-11-10T22:49:15.531Z,101298.63
2022-11-10T22:52:01.379Z,101297.09
2022-11-10T22:54:47.042Z,101302.09
2022-11-10T22:57:32.787Z,101297.84
2022-11-10T23:00:18.482Z,101299.00
2022-11-10T23:03:04.291Z,101295.41
2022-11-10T23:05:55.933Z,101292.00
2022-11-10T23:08:43.361Z,101298.72
2022-11-10T23:11:30.580Z,101292.59
2022-11-10T23:14:16.629Z,101291.50
2022-11-10T23:17:02.540Z,101292.69
2022-11-10T23:19:48.288Z,101287.78
2022-11-10T23:22:34.259Z,101297.34
2022-11-10T23:25:20.088Z,101309.66
2022-11-10T23:28:05.746Z,101311.66
2022-11-10T23:30:51.519Z,101307.38
2022-11-10T23:33:37.743Z,101303.84
2022-11-10T23:36:23.822Z,101306.28
2022-11-10T23:39:09.526Z,101302.44
2022-11-10T23:41:55.596Z,101307.06
2022-11-10T23:44:41.707Z,101304.19
2022-11-10T23:47:27.525Z,101303.22
2022-11-10T23:50:13.270Z,101294.09
2022-11-10T23:52:59.540Z,101308.50
2022-11-10T23:55:45.550Z,101300.53
2022-11-10T23:58:31.808Z,101305.72
